sensor_id;sensor_type;location;lat;lon;timestamp;P1;durP1;ratioP1;P2;durP2;ratioP2
18917;SDS011;9591;52.742;13.650;2024-01-11T00:01:38;29.60;;;6.82;;
18917;SDS011;9591;52.742;13.650;2024-01-11T00:04:24;13.07;;;7.13;;
18917;SDS011;9591;52.742;13.650;2024-01-11T00:07:13;23.67;;;6.85;;
18917;SDS011;9591;52.742;13.650;2024-01-11T00:10:00;16.55;;;7.38;;
18917;SDS011;9591;52.742;13.650;2024-01-11T00:12:52;22.08;;;7.88;;
18917;SDS011;9591;52.742;13.650;2024-01-11T00:15:39;11.00;;;5.65;;
18917;SDS011;9591;52.742;13.650;2024-01-11T00:18:35;15.32;;;6.47;;
18917;SDS011;9591;52.742;13.650;2024-01-11T00:21:22;15.02;;;6.97;;
18917;SDS011;9591;52.742;13.650;2024-01-11T00:24:09;17.02;;;5.50;;
18917;SDS011;9591;52.742;13.650;2024-01-11T00:26:56;13.32;;;6.60;;
18917;SDS011;9591;52.742;13.650;2024-01-11T00:29:45;15.63;;;6.30;;
18917;SDS011;9591;52.742;13.650;2024-01-11T00:32:34;13.95;;;6.38;;
18917;SDS011;9591;52.742;13.650;2024-01-11T00:35:27;8.82;;;4.70;;
18917;SDS011;9591;52.742;13.650;2024-01-11T00:38:16;11.38;;;4.85;;
18917;SDS011;9591;52.742;13.650;2024-01-11T00:41:06;13.02;;;5.03;;
18917;SDS011;9591;52.742;13.650;2024-01-11T00:43:53;9.98;;;5.25;;
18917;SDS011;9591;52.742;13.650;2024-01-11T00:46:45;11.52;;;4.72;;
18917;SDS011;9591;52.742;13.650;2024-01-11T00:49:32;9.38;;;5.07;;
18917;SDS011;9591;52.742;13.650;2024-01-11T00:52:20;8.23;;;5.00;;
18917;SDS011;9591;52.742;13.650;2024-01-11T00:55:07;6.63;;;3.55;;
18917;SDS011;9591;52.742;13.650;2024-01-11T00:57:54;10.52;;;4.72;;
18917;SDS011;9591;52.742;13.650;2024-01-11T01:00:43;11.52;;;3.72;;
18917;SDS011;9591;52.742;13.650;2024-01-11T01:03:32;4.47;;;3.47;;
18917;SDS011;9591;52.742;13.650;2024-01-11T01:06:21;11.05;;;4.30;;
18917;SDS011;9591;52.742;13.650;2024-01-11T01:09:10;4.35;;;3.47;;
18917;SDS011;9591;52.742;13.650;2024-01-11T01:11:57;9.20;;;4.45;;
18917;SDS011;9591;52.742;13.650;2024-01-11T01:14:44;9.68;;;4.00;;
18917;SDS011;9591;52.742;13.650;2024-01-11T01:17:33;5.35;;;4.05;;
18917;SDS011;9591;52.742;13.650;2024-01-11T01:20:20;7.93;;;4.75;;
18917;SDS011;9591;52.742;13.650;2024-01-11T01:23:08;8.52;;;3.92;;
18917;SDS011;9591;52.742;13.650;2024-01-11T01:26:01;8.63;;;4.32;;
18917;SDS011;9591;52.742;13.650;2024-01-11T01:28:51;4.10;;;3.00;;
18917;SDS011;9591;52.742;13.650;2024-01-11T01:31:41;8.27;;;5.22;;
18917;SDS011;9591;52.742;13.650;2024-01-11T01:34:28;7.50;;;4.00;;
18917;SDS011;9591;52.742;13.650;2024-01-11T01:37:15;5.80;;;3.85;;
18917;SDS011;9591;52.742;13.650;2024-01-11T01:40:04;11.02;;;4.20;;
18917;SDS011;9591;52.742;13.650;2024-01-11T01:42:59;10.82;;;4.20;;
18917;SDS011;9591;52.742;13.650;2024-01-11T01:45:56;7.20;;;4.38;;
18917;SDS011;9591;52.742;13.650;2024-01-11T01:48:44;9.63;;;4.43;;
18917;SDS011;9591;52.742;13.650;2024-01-11T01:51:33;8.93;;;4.63;;
18917;SDS011;9591;52.742;13.650;2024-01-11T01:54:22;9.27;;;4.57;;
18917;SDS011;9591;52.742;13.650;2024-01-11T01:57:12;8.60;;;4.30;;
18917;SDS011;9591;52.742;13.650;2024-01-11T02:00:17;15.93;;;4.00;;
18917;SDS011;9591;52.742;13.650;2024-01-11T02:03:04;8.43;;;4.80;;
18917;SDS011;9591;52.742;13.650;2024-01-11T02:05:51;8.52;;;3.90;;
18917;SDS011;9591;52.742;13.650;2024-01-11T02:08:47;9.75;;;5.25;;
18917;SDS011;9591;52.742;13.650;2024-01-11T02:14:56;7.70;;;4.70;;
18917;SDS011;9591;52.742;13.650;2024-01-11T02:17:45;11.48;;;5.10;;
18917;SDS011;9591;52.742;13.650;2024-01-11T02:20:33;7.97;;;4.63;;
18917;SDS011;9591;52.742;13.650;2024-01-11T02:23:21;12.15;;;5.55;;
18917;SDS011;9591;52.742;13.650;2024-01-11T02:26:15;10.37;;;5.43;;
18917;SDS011;9591;52.742;13.650;2024-01-11T02:29:01;8.82;;;3.80;;
18917;SDS011;9591;52.742;13.650;2024-01-11T02:31:48;12.13;;;4.38;;
18917;SDS011;9591;52.742;13.650;2024-01-11T02:34:39;10.30;;;3.90;;
18917;SDS011;9591;52.742;13.650;2024-01-11T02:37:26;11.38;;;4.53;;
18917;SDS011;9591;52.742;13.650;2024-01-11T02:40:16;10.07;;;4.82;;
18917;SDS011;9591;52.742;13.650;2024-01-11T02:43:09;9.10;;;4.22;;
18917;SDS011;9591;52.742;13.650;2024-01-11T02:46:01;8.57;;;3.47;;
18917;SDS011;9591;52.742;13.650;2024-01-11T02:48:51;15.70;;;4.07;;
18917;SDS011;9591;52.742;13.650;2024-01-11T02:51:40;11.10;;;4.47;;
18917;SDS011;9591;52.742;13.650;2024-01-11T02:54:27;5.72;;;3.55;;
18917;SDS011;9591;52.742;13.650;2024-01-11T02:57:14;7.13;;;4.00;;
18917;SDS011;9591;52.742;13.650;2024-01-11T03:00:11;7.88;;;3.97;;
18917;SDS011;9591;52.742;13.650;2024-01-11T03:03:00;10.75;;;5.57;;
18917;SDS011;9591;52.742;13.650;2024-01-11T03:05:49;10.55;;;5.43;;
18917;SDS011;9591;52.742;13.650;2024-01-11T03:08:36;10.95;;;4.18;;
18917;SDS011;9591;52.742;13.650;2024-01-11T03:11:25;12.02;;;5.20;;
18917;SDS011;9591;52.742;13.650;2024-01-11T03:14:12;9.80;;;4.97;;
18917;SDS011;9591;52.742;13.650;2024-01-11T03:17:06;9.07;;;4.50;;
18917;SDS011;9591;52.742;13.650;2024-01-11T03:19:53;8.00;;;4.30;;
18917;SDS011;9591;52.742;13.650;2024-01-11T03:22:46;11.13;;;4.30;;
18917;SDS011;9591;52.742;13.650;2024-01-11T03:25:35;12.03;;;4.90;;
18917;SDS011;9591;52.742;13.650;2024-01-11T03:28:23;10.03;;;5.30;;
18917;SDS011;9591;52.742;13.650;2024-01-11T03:31:11;8.97;;;4.73;;
18917;SDS011;9591;52.742;13.650;2024-01-11T03:33:59;11.00;;;5.45;;
18917;SDS011;9591;52.742;13.650;2024-01-11T03:36:48;10.80;;;4.97;;
18917;SDS011;9591;52.742;13.650;2024-01-11T03:39:37;10.67;;;4.97;;
18917;SDS011;9591;52.742;13.650;2024-01-11T03:42:26;11.90;;;4.80;;
18917;SDS011;9591;52.742;13.650;2024-01-11T03:45:22;16.67;;;4.77;;
18917;SDS011;9591;52.742;13.650;2024-01-11T03:48:09;10.13;;;4.33;;
18917;SDS011;9591;52.742;13.650;2024-01-11T03:51:03;12.02;;;5.30;;
18917;SDS011;9591;52.742;13.650;2024-01-11T03:53:52;12.60;;;4.73;;
18917;SDS011;9591;52.742;13.650;2024-01-11T03:56:40;7.57;;;3.77;;
18917;SDS011;9591;52.742;13.650;2024-01-11T03:59:28;13.20;;;4.93;;
18917;SDS011;9591;52.742;13.650;2024-01-11T04:02:16;10.17;;;4.60;;
18917;SDS011;9591;52.742;13.650;2024-01-11T04:05:07;7.10;;;4.27;;
18917;SDS011;9591;52.742;13.650;2024-01-11T04:07:59;15.00;;;4.77;;
18917;SDS011;9591;52.742;13.650;2024-01-11T04:10:48;12.25;;;5.40;;
18917;SDS011;9591;52.742;13.650;2024-01-11T04:13:35;11.47;;;6.03;;
18917;SDS011;9591;52.742;13.650;2024-01-11T04:16:27;11.83;;;6.07;;
18917;SDS011;9591;52.742;13.650;2024-01-11T04:19:16;8.60;;;4.73;;
18917;SDS011;9591;52.742;13.650;2024-01-11T04:22:07;14.33;;;5.00;;
18917;SDS011;9591;52.742;13.650;2024-01-11T04:24:58;16.47;;;6.83;;
18917;SDS011;9591;52.742;13.650;2024-01-11T04:27:44;12.33;;;5.43;;
18917;SDS011;9591;52.742;13.650;2024-01-11T04:30:32;14.43;;;6.27;;
18917;SDS011;9591;52.742;13.650;2024-01-11T04:33:23;11.17;;;5.23;;
18917;SDS011;9591;52.742;13.650;2024-01-11T04:36:12;16.27;;;6.40;;
18917;SDS011;9591;52.742;13.650;2024-01-11T04:38:59;19.23;;;6.00;;
18917;SDS011;9591;52.742;13.650;2024-01-11T04:41:52;14.70;;;6.77;;
18917;SDS011;9591;52.742;13.650;2024-01-11T04:44:42;16.93;;;5.93;;
18917;SDS011;9591;52.742;13.650;2024-01-11T04:47:33;13.43;;;6.30;;
18917;SDS011;9591;52.742;13.650;2024-01-11T04:50:20;12.90;;;5.03;;
18917;SDS011;9591;52.742;13.650;2024-01-11T04:53:07;12.00;;;5.00;;
18917;SDS011;9591;52.742;13.650;2024-01-11T04:55:54;12.13;;;5.53;;
18917;SDS011;9591;52.742;13.650;2024-01-11T04:58:45;12.67;;;5.77;;
18917;SDS011;9591;52.742;13.650;2024-01-11T05:01:35;15.10;;;6.17;;
18917;SDS011;9591;52.742;13.650;2024-01-11T05:04:24;23.57;;;7.80;;
18917;SDS011;9591;52.742;13.650;2024-01-11T05:07:13;11.97;;;6.00;;
18917;SDS011;9591;52.742;13.650;2024-01-11T05:10:00;14.60;;;6.13;;
18917;SDS011;9591;52.742;13.650;2024-01-11T05:12:49;13.07;;;6.03;;
18917;SDS011;9591;52.742;13.650;2024-01-11T05:15:39;14.87;;;6.70;;
18917;SDS011;9591;52.742;13.650;2024-01-11T05:18:29;16.80;;;5.97;;
18917;SDS011;9591;52.742;13.650;2024-01-11T05:21:20;18.40;;;6.07;;
18917;SDS011;9591;52.742;13.650;2024-01-11T05:24:07;22.20;;;6.80;;
18917;SDS011;9591;52.742;13.650;2024-01-11T05:26:56;15.30;;;6.30;;
18917;SDS011;9591;52.742;13.650;2024-01-11T05:29:46;14.87;;;6.37;;
18917;SDS011;9591;52.742;13.650;2024-01-11T05:32:37;23.97;;;8.00;;
18917;SDS011;9591;52.742;13.650;2024-01-11T05:35:25;21.57;;;6.67;;
18917;SDS011;9591;52.742;13.650;2024-01-11T05:38:13;21.93;;;7.37;;
18917;SDS011;9591;52.742;13.650;2024-01-11T05:41:00;18.30;;;6.53;;
18917;SDS011;9591;52.742;13.650;2024-01-11T05:43:48;20.93;;;7.73;;
18917;SDS011;9591;52.742;13.650;2024-01-11T05:46:36;17.77;;;8.00;;
18917;SDS011;9591;52.742;13.650;2024-01-11T05:49:26;21.23;;;7.93;;
18917;SDS011;9591;52.742;13.650;2024-01-11T05:52:18;18.90;;;7.63;;
18917;SDS011;9591;52.742;13.650;2024-01-11T05:55:07;21.43;;;6.77;;
18917;SDS011;9591;52.742;13.650;2024-01-11T05:57:56;23.47;;;7.50;;
18917;SDS011;9591;52.742;13.650;2024-01-11T06:00:43;27.63;;;8.57;;
18917;SDS011;9591;52.742;13.650;2024-01-11T06:03:33;29.33;;;7.67;;
18917;SDS011;9591;52.742;13.650;2024-01-11T06:06:24;19.67;;;7.43;;
18917;SDS011;9591;52.742;13.650;2024-01-11T06:09:14;24.37;;;8.17;;
18917;SDS011;9591;52.742;13.650;2024-01-11T06:12:00;29.27;;;7.80;;
18917;SDS011;9591;52.742;13.650;2024-01-11T06:14:47;23.37;;;7.83;;
18917;SDS011;9591;52.742;13.650;2024-01-11T06:17:34;19.47;;;7.37;;
18917;SDS011;9591;52.742;13.650;2024-01-11T06:20:22;25.20;;;8.47;;
18917;SDS011;9591;52.742;13.650;2024-01-11T06:23:12;23.43;;;8.43;;
18917;SDS011;9591;52.742;13.650;2024-01-11T06:26:04;20.03;;;7.50;;
18917;SDS011;9591;52.742;13.650;2024-01-11T06:28:53;22.73;;;7.10;;
18917;SDS011;9591;52.742;13.650;2024-01-11T06:31:43;24.17;;;8.43;;
18917;SDS011;9591;52.742;13.650;2024-01-11T06:34:31;19.83;;;7.50;;
18917;SDS011;9591;52.742;13.650;2024-01-11T06:37:17;29.10;;;7.60;;
18917;SDS011;9591;52.742;13.650;2024-01-11T06:40:15;22.53;;;7.67;;
18917;SDS011;9591;52.742;13.650;2024-01-11T06:43:04;22.90;;;8.43;;
18917;SDS011;9591;52.742;13.650;2024-01-11T06:46:04;23.43;;;7.80;;
18917;SDS011;9591;52.742;13.650;2024-01-11T06:48:52;23.37;;;8.43;;
18917;SDS011;9591;52.742;13.650;2024-01-11T06:51:40;17.10;;;6.43;;
18917;SDS011;9591;52.742;13.650;2024-01-11T06:54:26;18.30;;;6.77;;
18917;SDS011;9591;52.742;13.650;2024-01-11T06:57:19;13.33;;;6.60;;
18917;SDS011;9591;52.742;13.650;2024-01-11T07:00:06;18.80;;;6.50;;
18917;SDS011;9591;52.742;13.650;2024-01-11T07:02:54;25.50;;;7.37;;
18917;SDS011;9591;52.742;13.650;2024-01-11T07:05:43;21.83;;;7.67;;
18917;SDS011;9591;52.742;13.650;2024-01-11T07:08:33;21.87;;;8.07;;
18917;SDS011;9591;52.742;13.650;2024-01-11T07:11:23;21.10;;;6.20;;
18917;SDS011;9591;52.742;13.650;2024-01-11T07:14:14;16.93;;;7.07;;
18917;SDS011;9591;52.742;13.650;2024-01-11T07:17:02;23.97;;;6.93;;
18917;SDS011;9591;52.742;13.650;2024-01-11T07:20:06;24.93;;;8.07;;
18917;SDS011;9591;52.742;13.650;2024-01-11T07:23:12;17.33;;;7.40;;
18917;SDS011;9591;52.742;13.650;2024-01-11T07:26:04;16.70;;;7.97;;
18917;SDS011;9591;52.742;13.650;2024-01-11T07:28:55;20.30;;;6.80;;
18917;SDS011;9591;52.742;13.650;2024-01-11T07:31:48;20.03;;;7.10;;
18917;SDS011;9591;52.742;13.650;2024-01-11T07:34:39;21.70;;;8.20;;
18917;SDS011;9591;52.742;13.650;2024-01-11T07:37:28;20.40;;;6.87;;
18917;SDS011;9591;52.742;13.650;2024-01-11T07:40:16;25.07;;;7.10;;
18917;SDS011;9591;52.742;13.650;2024-01-11T07:43:05;21.97;;;7.53;;
18917;SDS011;9591;52.742;13.650;2024-01-11T07:45:55;28.13;;;7.50;;
18917;SDS011;9591;52.742;13.650;2024-01-11T07:48:44;20.47;;;7.50;;
18917;SDS011;9591;52.742;13.650;2024-01-11T07:51:31;21.87;;;7.47;;
18917;SDS011;9591;52.742;13.650;2024-01-11T07:54:20;15.63;;;8.17;;
18917;SDS011;9591;52.742;13.650;2024-01-11T07:57:07;25.50;;;9.00;;
18917;SDS011;9591;52.742;13.650;2024-01-11T07:59:54;20.00;;;7.77;;
18917;SDS011;9591;52.742;13.650;2024-01-11T08:02:41;20.47;;;7.63;;
18917;SDS011;9591;52.742;13.650;2024-01-11T08:05:33;16.97;;;7.07;;
18917;SDS011;9591;52.742;13.650;2024-01-11T08:08:25;16.30;;;5.87;;
18917;SDS011;9591;52.742;13.650;2024-01-11T08:11:14;20.80;;;7.90;;
18917;SDS011;9591;52.742;13.650;2024-01-11T08:14:01;18.73;;;6.60;;
18917;SDS011;9591;52.742;13.650;2024-01-11T08:16:54;22.03;;;8.23;;
18917;SDS011;9591;52.742;13.650;2024-01-11T08:19:47;24.43;;;7.70;;
18917;SDS011;9591;52.742;13.650;2024-01-11T08:22:36;22.13;;;7.60;;
18917;SDS011;9591;52.742;13.650;2024-01-11T08:25:24;24.23;;;8.63;;
18917;SDS011;9591;52.742;13.650;2024-01-11T08:28:12;19.93;;;7.87;;
18917;SDS011;9591;52.742;13.650;2024-01-11T08:30:58;25.17;;;8.43;;
18917;SDS011;9591;52.742;13.650;2024-01-11T08:33:46;21.07;;;7.73;;
18917;SDS011;9591;52.742;13.650;2024-01-11T08:36:34;21.30;;;8.10;;
18917;SDS011;9591;52.742;13.650;2024-01-11T08:39:25;20.63;;;7.80;;
18917;SDS011;9591;52.742;13.650;2024-01-11T08:42:12;19.43;;;7.60;;
18917;SDS011;9591;52.742;13.650;2024-01-11T08:45:00;17.30;;;7.37;;
18917;SDS011;9591;52.742;13.650;2024-01-11T08:47:52;20.87;;;8.20;;
18917;SDS011;9591;52.742;13.650;2024-01-11T08:50:42;21.27;;;7.63;;
18917;SDS011;9591;52.742;13.650;2024-01-11T08:53:29;24.00;;;9.17;;
18917;SDS011;9591;52.742;13.650;2024-01-11T08:56:17;20.60;;;7.97;;
18917;SDS011;9591;52.742;13.650;2024-01-11T08:59:04;21.83;;;8.93;;
18917;SDS011;9591;52.742;13.650;2024-01-11T09:01:56;23.90;;;7.97;;
18917;SDS011;9591;52.742;13.650;2024-01-11T09:05:01;20.17;;;7.73;;
18917;SDS011;9591;52.742;13.650;2024-01-11T09:07:54;16.13;;;6.63;;
18917;SDS011;9591;52.742;13.650;2024-01-11T09:10:46;22.47;;;8.13;;
18917;SDS011;9591;52.742;13.650;2024-01-11T09:13:35;16.10;;;6.63;;
18917;SDS011;9591;52.742;13.650;2024-01-11T09:16:25;20.47;;;7.80;;
18917;SDS011;9591;52.742;13.650;2024-01-11T09:19:21;17.60;;;6.30;;
18917;SDS011;9591;52.742;13.650;2024-01-11T09:22:11;15.20;;;7.33;;
18917;SDS011;9591;52.742;13.650;2024-01-11T09:24:58;17.60;;;7.07;;
18917;SDS011;9591;52.742;13.650;2024-01-11T09:27:46;25.03;;;7.60;;
18917;SDS011;9591;52.742;13.650;2024-01-11T09:30:36;21.37;;;7.83;;
18917;SDS011;9591;52.742;13.650;2024-01-11T09:33:23;19.17;;;6.40;;
18917;SDS011;9591;52.742;13.650;2024-01-11T09:36:11;19.23;;;7.23;;
18917;SDS011;9591;52.742;13.650;2024-01-11T09:38:59;15.20;;;7.27;;
18917;SDS011;9591;52.742;13.650;2024-01-11T09:41:48;21.40;;;7.10;;
18917;SDS011;9591;52.742;13.650;2024-01-11T09:44:45;15.67;;;7.13;;
18917;SDS011;9591;52.742;13.650;2024-01-11T09:47:39;14.13;;;5.53;;
18917;SDS011;9591;52.742;13.650;2024-01-11T09:50:29;17.90;;;7.57;;
18917;SDS011;9591;52.742;13.650;2024-01-11T09:53:19;21.47;;;7.33;;
18917;SDS011;9591;52.742;13.650;2024-01-11T09:56:11;16.03;;;6.30;;
18917;SDS011;9591;52.742;13.650;2024-01-11T09:59:02;15.60;;;6.50;;
18917;SDS011;9591;52.742;13.650;2024-01-11T10:01:59;18.50;;;7.07;;
18917;SDS011;9591;52.742;13.650;2024-01-11T10:04:54;15.03;;;7.43;;
18917;SDS011;9591;52.742;13.650;2024-01-11T10:07:46;12.10;;;5.63;;
18917;SDS011;9591;52.742;13.650;2024-01-11T10:10:35;11.70;;;5.90;;
18917;SDS011;9591;52.742;13.650;2024-01-11T10:13:26;15.30;;;5.50;;
18917;SDS011;9591;52.742;13.650;2024-01-11T10:16:16;15.70;;;6.70;;
18917;SDS011;9591;52.742;13.650;2024-01-11T10:19:04;19.33;;;7.60;;
18917;SDS011;9591;52.742;13.650;2024-01-11T10:21:58;22.93;;;7.23;;
18917;SDS011;9591;52.742;13.650;2024-01-11T10:24:47;17.03;;;7.10;;
18917;SDS011;9591;52.742;13.650;2024-01-11T10:27:34;14.93;;;5.73;;
18917;SDS011;9591;52.742;13.650;2024-01-11T10:30:22;15.47;;;7.20;;
18917;SDS011;9591;52.742;13.650;2024-01-11T10:33:10;14.73;;;6.70;;
18917;SDS011;9591;52.742;13.650;2024-01-11T10:36:00;20.63;;;8.03;;
18917;SDS011;9591;52.742;13.650;2024-01-11T10:39:02;21.33;;;7.70;;
18917;SDS011;9591;52.742;13.650;2024-01-11T10:42:00;13.67;;;5.50;;
18917;SDS011;9591;52.742;13.650;2024-01-11T10:45:01;17.87;;;6.87;;
18917;SDS011;9591;52.742;13.650;2024-01-11T10:47:53;19.30;;;7.87;;
18917;SDS011;9591;52.742;13.650;2024-01-11T10:50:48;17.63;;;7.00;;
18917;SDS011;9591;52.742;13.650;2024-01-11T10:53:41;18.37;;;6.90;;
18917;SDS011;9591;52.742;13.650;2024-01-11T10:56:35;14.03;;;5.97;;
18917;SDS011;9591;52.742;13.650;2024-01-11T10:59:30;18.27;;;7.17;;
18917;SDS011;9591;52.742;13.650;2024-01-11T11:02:25;16.37;;;6.77;;
18917;SDS011;9591;52.742;13.650;2024-01-11T11:05:15;16.33;;;7.53;;
18917;SDS011;9591;52.742;13.650;2024-01-11T11:08:05;17.83;;;6.90;;
18917;SDS011;9591;52.742;13.650;2024-01-11T11:11:06;12.43;;;5.87;;
18917;SDS011;9591;52.742;13.650;2024-01-11T11:14:01;13.83;;;5.37;;
18917;SDS011;9591;52.742;13.650;2024-01-11T11:16:54;17.40;;;7.47;;
18917;SDS011;9591;52.742;13.650;2024-01-11T11:19:45;20.63;;;8.30;;
18917;SDS011;9591;52.742;13.650;2024-01-11T11:22:33;13.93;;;6.23;;
18917;SDS011;9591;52.742;13.650;2024-01-11T11:25:24;16.90;;;6.70;;
18917;SDS011;9591;52.742;13.650;2024-01-11T11:28:14;14.80;;;6.20;;
18917;SDS011;9591;52.742;13.650;2024-01-11T11:31:10;12.97;;;7.10;;
18917;SDS011;9591;52.742;13.650;2024-01-11T11:34:02;14.37;;;6.03;;
18917;SDS011;9591;52.742;13.650;2024-01-11T11:36:53;16.00;;;7.20;;
18917;SDS011;9591;52.742;13.650;2024-01-11T11:39:42;16.20;;;6.43;;
18917;SDS011;9591;52.742;13.650;2024-01-11T11:42:31;12.10;;;5.83;;
18917;SDS011;9591;52.742;13.650;2024-01-11T11:45:25;15.90;;;5.60;;
18917;SDS011;9591;52.742;13.650;2024-01-11T11:51:42;8.30;;;4.87;;
18917;SDS011;9591;52.742;13.650;2024-01-11T11:54:34;11.13;;;5.57;;
18917;SDS011;9591;52.742;13.650;2024-01-11T11:57:21;12.77;;;5.30;;
18917;SDS011;9591;52.742;13.650;2024-01-11T12:00:13;18.13;;;5.53;;
18917;SDS011;9591;52.742;13.650;2024-01-11T12:03:09;10.30;;;4.67;;
18917;SDS011;9591;52.742;13.650;2024-01-11T12:06:02;11.60;;;4.83;;
18917;SDS011;9591;52.742;13.650;2024-01-11T12:08:57;12.23;;;5.47;;
18917;SDS011;9591;52.742;13.650;2024-01-11T12:11:44;9.97;;;4.87;;
18917;SDS011;9591;52.742;13.650;2024-01-11T12:14:59;8.40;;;4.57;;
18917;SDS011;9591;52.742;13.650;2024-01-11T12:17:57;9.90;;;5.10;;
18917;SDS011;9591;52.742;13.650;2024-01-11T12:20:48;12.57;;;4.70;;
18917;SDS011;9591;52.742;13.650;2024-01-11T12:23:40;10.90;;;4.33;;
18917;SDS011;9591;52.742;13.650;2024-01-11T12:26:30;8.43;;;3.87;;
18917;SDS011;9591;52.742;13.650;2024-01-11T12:29:17;10.90;;;4.07;;
18917;SDS011;9591;52.742;13.650;2024-01-11T12:32:07;7.83;;;3.83;;
18917;SDS011;9591;52.742;13.650;2024-01-11T12:35:00;14.63;;;4.67;;
18917;SDS011;9591;52.742;13.650;2024-01-11T12:37:59;9.83;;;4.43;;
18917;SDS011;9591;52.742;13.650;2024-01-11T12:40:49;7.97;;;4.50;;
18917;SDS011;9591;52.742;13.650;2024-01-11T12:43:36;8.43;;;4.13;;
18917;SDS011;9591;52.742;13.650;2024-01-11T12:46:23;8.80;;;4.23;;
18917;SDS011;9591;52.742;13.650;2024-01-11T12:49:11;8.20;;;3.67;;
18917;SDS011;9591;52.742;13.650;2024-01-11T12:51:58;7.30;;;4.33;;
18917;SDS011;9591;52.742;13.650;2024-01-11T12:54:48;8.13;;;4.07;;
18917;SDS011;9591;52.742;13.650;2024-01-11T12:57:48;9.03;;;4.30;;
18917;SDS011;9591;52.742;13.650;2024-01-11T13:00:36;5.80;;;3.33;;
18917;SDS011;9591;52.742;13.650;2024-01-11T13:03:25;9.53;;;3.97;;
18917;SDS011;9591;52.742;13.650;2024-01-11T13:09:27;7.23;;;3.63;;
18917;SDS011;9591;52.742;13.650;2024-01-11T13:12:14;6.83;;;3.63;;
18917;SDS011;9591;52.742;13.650;2024-01-11T13:15:12;7.40;;;3.70;;
18917;SDS011;9591;52.742;13.650;2024-01-11T13:21:13;7.63;;;3.37;;
18917;SDS011;9591;52.742;13.650;2024-01-11T13:24:00;5.13;;;3.03;;
18917;SDS011;9591;52.742;13.650;2024-01-11T13:26:47;6.47;;;3.67;;
18917;SDS011;9591;52.742;13.650;2024-01-11T13:29:40;7.93;;;3.50;;
18917;SDS011;9591;52.742;13.650;2024-01-11T13:32:29;5.73;;;3.07;;
18917;SDS011;9591;52.742;13.650;2024-01-11T13:35:19;9.30;;;4.40;;
18917;SDS011;9591;52.742;13.650;2024-01-11T13:38:21;8.17;;;3.63;;
18917;SDS011;9591;52.742;13.650;2024-01-11T13:41:10;7.10;;;3.53;;
18917;SDS011;9591;52.742;13.650;2024-01-11T13:43:59;8.13;;;3.73;;
18917;SDS011;9591;52.742;13.650;2024-01-11T13:46:51;5.73;;;2.90;;
18917;SDS011;9591;52.742;13.650;2024-01-11T13:49:40;6.63;;;3.33;;
18917;SDS011;9591;52.742;13.650;2024-01-11T13:52:26;6.07;;;3.17;;
18917;SDS011;9591;52.742;13.650;2024-01-11T13:55:13;5.73;;;3.30;;
18917;SDS011;9591;52.742;13.650;2024-01-11T13:58:01;6.63;;;2.60;;
18917;SDS011;9591;52.742;13.650;2024-01-11T14:00:49;7.40;;;3.57;;
18917;SDS011;9591;52.742;13.650;2024-01-11T14:03:41;4.67;;;3.00;;
18917;SDS011;9591;52.742;13.650;2024-01-11T14:06:32;8.90;;;3.80;;
18917;SDS011;9591;52.742;13.650;2024-01-11T14:09:21;7.50;;;3.60;;
18917;SDS011;9591;52.742;13.650;2024-01-11T14:12:18;6.17;;;2.83;;
18917;SDS011;9591;52.742;13.650;2024-01-11T14:15:06;5.07;;;3.13;;
18917;SDS011;9591;52.742;13.650;2024-01-11T14:17:57;6.57;;;3.63;;
18917;SDS011;9591;52.742;13.650;2024-01-11T14:20:44;4.13;;;3.07;;
18917;SDS011;9591;52.742;13.650;2024-01-11T14:23:36;7.43;;;3.53;;
18917;SDS011;9591;52.742;13.650;2024-01-11T14:26:26;5.03;;;3.33;;
18917;SDS011;9591;52.742;13.650;2024-01-11T14:29:36;7.77;;;3.97;;
18917;SDS011;9591;52.742;13.650;2024-01-11T14:32:25;8.03;;;5.17;;
18917;SDS011;9591;52.742;13.650;2024-01-11T14:35:22;6.47;;;3.37;;
18917;SDS011;9591;52.742;13.650;2024-01-11T14:38:08;6.80;;;3.13;;
18917;SDS011;9591;52.742;13.650;2024-01-11T14:41:01;7.20;;;3.87;;
18917;SDS011;9591;52.742;13.650;2024-01-11T14:43:51;5.93;;;3.13;;
18917;SDS011;9591;52.742;13.650;2024-01-11T14:46:55;6.33;;;3.57;;
18917;SDS011;9591;52.742;13.650;2024-01-11T14:49:43;8.40;;;3.30;;
18917;SDS011;9591;52.742;13.650;2024-01-11T14:52:30;5.67;;;3.63;;
18917;SDS011;9591;52.742;13.650;2024-01-11T14:55:19;4.37;;;2.87;;
18917;SDS011;9591;52.742;13.650;2024-01-11T14:58:10;7.90;;;4.27;;
18917;SDS011;9591;52.742;13.650;2024-01-11T15:00:57;7.87;;;4.00;;
18917;SDS011;9591;52.742;13.650;2024-01-11T15:03:47;6.97;;;4.30;;
18917;SDS011;9591;52.742;13.650;2024-01-11T15:06:35;8.00;;;4.30;;
18917;SDS011;9591;52.742;13.650;2024-01-11T15:09:24;7.30;;;3.67;;
18917;SDS011;9591;52.742;13.650;2024-01-11T15:12:11;10.70;;;4.40;;
18917;SDS011;9591;52.742;13.650;2024-01-11T15:14:59;8.33;;;3.83;;
18917;SDS011;9591;52.742;13.650;2024-01-11T15:17:53;10.67;;;4.30;;
18917;SDS011;9591;52.742;13.650;2024-01-11T15:20:40;11.93;;;4.43;;
18917;SDS011;9591;52.742;13.650;2024-01-11T15:23:27;10.07;;;3.87;;
18917;SDS011;9591;52.742;13.650;2024-01-11T15:26:14;8.37;;;4.17;;
18917;SDS011;9591;52.742;13.650;2024-01-11T15:29:05;7.57;;;4.00;;
18917;SDS011;9591;52.742;13.650;2024-01-11T15:31:57;7.23;;;4.47;;
18917;SDS011;9591;52.742;13.650;2024-01-11T15:34:44;6.97;;;3.87;;
18917;SDS011;9591;52.742;13.650;2024-01-11T15:37:32;9.27;;;4.30;;
18917;SDS011;9591;52.742;13.650;2024-01-11T15:40:20;12.53;;;3.90;;
18917;SDS011;9591;52.742;13.650;2024-01-11T15:43:07;9.57;;;3.90;;
18917;SDS011;9591;52.742;13.650;2024-01-11T15:45:54;8.87;;;4.57;;
18917;SDS011;9591;52.742;13.650;2024-01-11T15:48:43;11.17;;;5.40;;
18917;SDS011;9591;52.742;13.650;2024-01-11T15:51:30;10.43;;;4.70;;
18917;SDS011;9591;52.742;13.650;2024-01-11T15:54:17;10.67;;;5.47;;
18917;SDS011;9591;52.742;13.650;2024-01-11T15:57:08;15.77;;;5.27;;
18917;SDS011;9591;52.742;13.650;2024-01-11T16:03:50;11.87;;;5.43;;
18917;SDS011;9591;52.742;13.650;2024-01-11T16:06:40;9.93;;;5.27;;
18917;SDS011;9591;52.742;13.650;2024-01-11T16:09:28;13.77;;;5.63;;
18917;SDS011;9591;52.742;13.650;2024-01-11T16:12:15;12.03;;;6.60;;
18917;SDS011;9591;52.742;13.650;2024-01-11T16:15:05;11.83;;;5.70;;
18917;SDS011;9591;52.742;13.650;2024-01-11T16:17:55;15.27;;;5.53;;
18917;SDS011;9591;52.742;13.650;2024-01-11T16:20:46;19.20;;;5.60;;
18917;SDS011;9591;52.742;13.650;2024-01-11T16:23:37;16.93;;;6.07;;
18917;SDS011;9591;52.742;13.650;2024-01-11T16:26:29;13.97;;;6.07;;
18917;SDS011;9591;52.742;13.650;2024-01-11T16:29:17;16.80;;;6.27;;
18917;SDS011;9591;52.742;13.650;2024-01-11T16:32:04;12.80;;;5.50;;
18917;SDS011;9591;52.742;13.650;2024-01-11T16:34:52;17.13;;;6.10;;
18917;SDS011;9591;52.742;13.650;2024-01-11T16:37:40;15.30;;;7.27;;
18917;SDS011;9591;52.742;13.650;2024-01-11T16:40:27;11.57;;;5.77;;
18917;SDS011;9591;52.742;13.650;2024-01-11T16:43:15;13.10;;;5.80;;
18917;SDS011;9591;52.742;13.650;2024-01-11T16:46:02;11.97;;;5.83;;
18917;SDS011;9591;52.742;13.650;2024-01-11T16:48:53;13.63;;;6.43;;
18917;SDS011;9591;52.742;13.650;2024-01-11T16:51:44;11.77;;;5.17;;
18917;SDS011;9591;52.742;13.650;2024-01-11T16:54:39;20.57;;;6.40;;
18917;SDS011;9591;52.742;13.650;2024-01-11T16:57:26;18.37;;;6.03;;
18917;SDS011;9591;52.742;13.650;2024-01-11T17:00:13;21.57;;;7.77;;
18917;SDS011;9591;52.742;13.650;2024-01-11T17:03:01;18.07;;;6.17;;
18917;SDS011;9591;52.742;13.650;2024-01-11T17:05:54;14.43;;;6.60;;
18917;SDS011;9591;52.742;13.650;2024-01-11T17:08:43;14.17;;;5.53;;
18917;SDS011;9591;52.742;13.650;2024-01-11T17:11:31;15.60;;;6.17;;